createdAt,value
2022-10-09T00:00:42.042Z,11.29
2022-10-09T00:03:08.735Z,11.22
2022-10-09T00:05:35.814Z,11.41
2022-10-09T00:08:02.726Z,11.35
2022-10-09T00:10:29.489Z,11.32
2022-10-09T00:12:56.691Z,11.18
2022-10-09T00:15:23.426Z,11.27
2022-10-09T00:17:50.223Z,11.28
2022-10-09T00:20:17.047Z,11.27
2022-10-09T00:22:43.714Z,11.22
2022-10-09T00:25:10.608Z,11.25
2022-10-09T00:27:37.331Z,11.20
2022-10-09T00:30:04.430Z,11.22
2022-10-09T00:32:31.325Z,11.23
2022-10-09T00:34:58.054Z,11.09
2022-10-09T00:37:24.686Z,11.10
2022-10-09T00:39:51.562Z,11.03
2022-10-09T00:42:18.445Z,10.98
2022-10-09T00:44:57.202Z,10.84
2022-10-09T00:47:30.487Z,10.78
2022-10-09T00:50:02.169Z,10.80
2022-10-09T00:52:29.096Z,10.85
2022-10-09T00:54:56.246Z,10.88
2022-10-09T00:57:23.331Z,10.93
2022-10-09T00:59:50.186Z,10.83
2022-10-09T01:02:16.890Z,10.74
2022-10-09T01:04:43.622Z,10.65
2022-10-09T01:07:18.906Z,10.54
2022-10-09T01:09:57.432Z,10.56
2022-10-09T01:13:00.664Z,10.57
2022-10-09T01:15:30.227Z,10.61
2022-10-09T01:18:24.267Z,10.43
2022-10-09T01:21:03.132Z,10.56
2022-10-09T01:23:54.855Z,10.41
2022-10-09T01:26:27.150Z,10.52
2022-10-09T01:28:57.463Z,10.46
2022-10-09T01:31:27.133Z,10.56
2022-10-09T01:33:54.246Z,10.54
2022-10-09T01:36:22.035Z,10.47
2022-10-09T01:38:48.954Z,10.48
2022-10-09T01:41:15.780Z,10.42
2022-10-09T01:43:42.491Z,10.40
2022-10-09T01:46:18.349Z,10.25
2022-10-09T01:48:49.669Z,10.30
2022-10-09T01:51:17.963Z,10.30
2022-10-09T01:53:44.661Z,10.34
2022-10-09T01:56:19.203Z,10.15
2022-10-09T01:58:51.394Z,10.22
2022-10-09T02:01:21.455Z,10.18
2022-10-09T02:03:49.826Z,10.26
2022-10-09T02:06:17.818Z,10.09
2022-10-09T02:08:47.007Z,10.09
2022-10-09T02:11:15.155Z,10.13
2022-10-09T02:13:42.267Z,10.24
2022-10-09T02:16:37.391Z,10.06
2022-10-09T02:19:22.372Z,10.06
2022-10-09T02:22:08.204Z,9.84
2022-10-09T02:24:37.858Z,10.03
2022-10-09T02:27:04.777Z,10.00
2022-10-09T02:29:31.978Z,10.07
2022-10-09T02:31:58.874Z,9.90
2022-10-09T02:34:25.585Z,10.02
2022-10-09T02:36:52.231Z,10.00
2022-10-09T02:39:18.945Z,9.99
2022-10-09T02:41:45.613Z,10.04
2022-10-09T02:44:12.627Z,10.00
2022-10-09T02:46:39.655Z,9.97
2022-10-09T02:49:06.853Z,9.98
2022-10-09T02:51:33.787Z,9.92
2022-10-09T02:54:00.582Z,10.00
2022-10-09T02:56:27.941Z,9.95
2022-10-09T02:58:54.672Z,9.90
2022-10-09T03:01:21.722Z,9.94
2022-10-09T03:03:48.462Z,9.79
2022-10-09T03:06:18.351Z,9.69
2022-10-09T03:08:47.244Z,9.80
2022-10-09T03:11:15.617Z,9.85
2022-10-09T03:13:42.836Z,9.76
2022-10-09T03:16:15.291Z,9.75
2022-10-09T03:18:42.183Z,9.67
2022-10-09T03:21:11.532Z,9.70
2022-10-09T03:23:39.413Z,9.73
2022-10-09T03:26:08.562Z,9.70
2022-10-09T03:28:39.569Z,9.72
2022-10-09T03:31:06.886Z,9.66
2022-10-09T03:33:35.082Z,9.62
2022-10-09T03:36:02.252Z,9.60
2022-10-09T03:38:29.145Z,9.52
2022-10-09T03:40:58.333Z,9.43
2022-10-09T03:43:25.062Z,9.57
2022-10-09T03:45:52.139Z,9.51
2022-10-09T03:48:19.058Z,9.48
2022-10-09T03:50:45.701Z,9.41
2022-10-09T03:53:12.915Z,9.47
2022-10-09T03:55:40.412Z,9.40
2022-10-09T03:58:07.857Z,9.51
2022-10-09T04:00:35.243Z,9.47
2022-10-09T04:03:02.218Z,9.41
2022-10-09T04:05:30.342Z,9.37
2022-10-09T04:07:57.220Z,9.38
2022-10-09T04:10:24.069Z,9.40
2022-10-09T04:12:51.015Z,9.28
2022-10-09T04:15:18.188Z,9.26
2022-10-09T04:17:44.833Z,9.38
2022-10-09T04:20:11.530Z,9.26
2022-10-09T04:22:38.175Z,9.26
2022-10-09T04:25:05.134Z,9.26
2022-10-09T04:27:31.987Z,9.25
2022-10-09T04:29:58.713Z,9.24
2022-10-09T04:32:25.347Z,9.23
2022-10-09T04:34:51.989Z,9.28
2022-10-09T04:37:20.288Z,9.15
2022-10-09T04:39:46.950Z,9.21
2022-10-09T04:42:13.755Z,9.22
2022-10-09T04:44:40.561Z,9.22
2022-10-09T04:47:11.156Z,9.25
2022-10-09T04:49:38.104Z,9.13
2022-10-09T04:52:04.809Z,9.08
2022-10-09T04:54:31.637Z,9.16
2022-10-09T04:56:58.264Z,9.11
2022-10-09T04:59:25.116Z,9.07
2022-10-09T05:01:51.775Z,9.16
2022-10-09T05:04:18.517Z,9.16
2022-10-09T05:06:45.154Z,9.06
2022-10-09T05:09:11.784Z,9.17
2022-10-09T05:11:42.456Z,9.10
2022-10-09T05:14:09.786Z,9.08
2022-10-09T05:16:55.064Z,8.99
2022-10-09T05:19:23.509Z,8.98
2022-10-09T05:21:50.173Z,8.97
2022-10-09T05:24:17.044Z,8.98
2022-10-09T05:26:43.828Z,8.95
2022-10-09T05:29:10.464Z,9.06
2022-10-09T05:31:37.630Z,8.97
2022-10-09T05:34:04.896Z,8.94
2022-10-09T05:36:31.590Z,8.91
2022-10-09T05:39:01.043Z,8.97
2022-10-09T05:41:29.509Z,8.82
2022-10-09T05:44:01.139Z,8.87
2022-10-09T05:46:29.935Z,8.82
2022-10-09T05:49:02.190Z,8.85
2022-10-09T05:51:36.955Z,8.68
2022-10-09T05:54:04.481Z,8.82
2022-10-09T05:56:33.478Z,8.90
2022-10-09T05:59:07.928Z,8.77
2022-10-09T06:01:36.675Z,8.88
2022-10-09T06:04:04.597Z,8.95
2022-10-09T06:06:33.257Z,8.95
2022-10-09T06:08:59.906Z,8.99
2022-10-09T06:11:29.077Z,9.12
2022-10-09T06:13:56.413Z,9.01
2022-10-09T06:16:26.433Z,9.01
2022-10-09T06:18:54.134Z,9.12
2022-10-09T06:21:21.834Z,9.05
2022-10-09T06:23:52.837Z,8.97
2022-10-09T06:26:20.225Z,9.36
2022-10-09T06:28:47.613Z,9.26
2022-10-09T06:31:20.281Z,9.37
2022-10-09T06:33:48.313Z,9.34
2022-10-09T06:36:17.661Z,9.50
2022-10-09T06:38:44.719Z,9.59
2022-10-09T06:41:13.837Z,9.63
2022-10-09T06:43:40.707Z,9.75
2022-10-09T06:46:09.604Z,9.67
2022-10-09T06:48:38.317Z,9.76
2022-10-09T06:51:07.515Z,9.76
2022-10-09T06:53:45.804Z,9.59
2022-10-09T06:56:12.834Z,9.57
2022-10-09T06:58:40.232Z,9.66
2022-10-09T07:01:15.309Z,9.60
2022-10-09T07:03:43.853Z,9.64
2022-10-09T07:06:18.873Z,9.61
2022-10-09T07:08:49.734Z,9.52
2022-10-09T07:11:25.542Z,9.67
2022-10-09T07:13:54.772Z,9.74
2022-10-09T07:16:23.810Z,9.70
2022-10-09T07:18:50.729Z,9.75
2022-10-09T07:21:17.465Z,9.77
2022-10-09T07:23:44.262Z,9.93
2022-10-09T07:26:16.436Z,9.85
2022-10-09T07:28:46.975Z,10.01
2022-10-09T07:31:14.555Z,9.99
2022-10-09T07:33:44.119Z,10.10
2022-10-09T07:36:11.089Z,10.18
2022-10-09T07:38:37.865Z,10.14
2022-10-09T07:41:07.525Z,10.22
2022-10-09T07:43:38.761Z,10.24
2022-10-09T07:46:07.121Z,10.13
2022-10-09T07:48:35.108Z,10.34
2022-10-09T07:51:09.013Z,10.31
2022-10-09T07:53:36.139Z,10.42
2022-10-09T07:56:04.318Z,10.41
2022-10-09T07:58:31.502Z,10.46
2022-10-09T08:01:04.548Z,10.47
2022-10-09T08:03:31.272Z,10.55
2022-10-09T08:05:58.017Z,10.62
2022-10-09T08:08:24.917Z,10.73
2022-10-09T08:10:51.630Z,10.81
2022-10-09T08:13:18.278Z,10.79
2022-10-09T08:15:45.265Z,10.89
2022-10-09T08:18:12.540Z,10.93
2022-10-09T08:20:39.407Z,10.95
2022-10-09T08:23:06.253Z,11.00
2022-10-09T08:25:37.333Z,11.03
2022-10-09T08:28:04.791Z,11.12
2022-10-09T08:30:31.506Z,11.18
2022-10-09T08:32:58.220Z,11.24
2022-10-09T08:35:24.910Z,11.23
2022-10-09T08:37:51.667Z,11.28
2022-10-09T08:40:54.927Z,11.21
2022-10-09T08:43:34.331Z,11.27
2022-10-09T08:46:03.663Z,11.38
2022-10-09T08:48:35.099Z,11.44
2022-10-09T08:51:03.643Z,11.50
2022-10-09T08:53:38.198Z,11.54
2022-10-09T08:56:06.216Z,11.56
2022-10-09T08:58:34.438Z,11.62
2022-10-09T09:01:36.451Z,11.66
2022-10-09T09:04:32.868Z,11.65
2022-10-09T09:07:35.780Z,11.77
2022-10-09T09:10:18.830Z,11.76
2022-10-09T09:13:24.167Z,11.84
2022-10-09T09:15:56.135Z,11.87
2022-10-09T09:18:42.057Z,11.90
2022-10-09T09:21:22.550Z,11.89
2022-10-09T09:23:49.347Z,11.99
2022-10-09T09:26:18.002Z,12.05
2022-10-09T09:28:44.907Z,12.09
2022-10-09T09:31:28.159Z,12.11
2022-10-09T09:34:11.318Z,12.15
2022-10-09T09:36:55.822Z,12.11
2022-10-09T09:40:08.243Z,12.21
2022-10-09T09:42:17.641Z,12.22
2022-10-09T09:45:00.629Z,12.21
2022-10-09T09:47:38.997Z,12.27
2022-10-09T09:50:06.399Z,12.35
2022-10-09T09:52:40.273Z,12.40
2022-10-09T09:55:07.434Z,12.45
2022-10-09T09:57:36.608Z,12.46
2022-10-09T10:00:29.808Z,12.35
2022-10-09T10:03:23.189Z,12.43
2022-10-09T10:05:49.889Z,12.53
2022-10-09T10:08:31.282Z,12.52
2022-10-09T10:11:00.318Z,12.59
2022-10-09T10:13:34.534Z,12.63
2022-10-09T10:16:01.773Z,12.68
2022-10-09T10:18:32.158Z,12.72
2022-10-09T10:21:11.553Z,12.69
2022-10-09T10:23:41.998Z,12.77
2022-10-09T10:26:20.701Z,12.73
2022-10-09T10:28:52.202Z,12.82
2022-10-09T10:31:36.242Z,12.79
2022-10-09T10:34:03.529Z,12.89
2022-10-09T10:36:30.194Z,12.92
2022-10-09T10:39:05.251Z,12.92
2022-10-09T10:41:36.774Z,12.96
2022-10-09T10:44:19.039Z,12.95
2022-10-09T10:46:59.857Z,12.97
2022-10-09T10:49:30.617Z,13.05
2022-10-09T10:52:47.414Z,12.99
2022-10-09T10:55:32.126Z,13.01
2022-10-09T10:58:28.272Z,13.06
2022-10-09T11:01:06.468Z,13.09
2022-10-09T11:03:43.142Z,13.14
2022-10-09T11:06:22.906Z,13.19
2022-10-09T11:09:11.785Z,13.20
2022-10-09T11:11:50.200Z,13.27
2022-10-09T11:14:35.429Z,13.28
2022-10-09T11:17:18.757Z,13.34
2022-10-09T11:19:53.077Z,13.23
2022-10-09T11:22:28.156Z,13.38
2022-10-09T11:25:13.467Z,13.44
2022-10-09T11:28:03.140Z,13.46
2022-10-09T11:30:42.872Z,13.52
2022-10-09T11:33:29.558Z,13.51
2022-10-09T11:36:07.026Z,13.60
2022-10-09T11:38:38.358Z,13.66
2022-10-09T11:41:07.417Z,13.72
2022-10-09T11:43:52.973Z,13.66
2022-10-09T11:46:38.859Z,13.71
2022-10-09T11:49:24.897Z,13.73
2022-10-09T11:52:11.005Z,13.77
2022-10-09T11:54:37.653Z,13.90
2022-10-09T11:57:06.295Z,13.95
2022-10-09T11:59:36.397Z,13.96
2022-10-09T12:02:25.887Z,13.91
2022-10-09T12:04:55.491Z,14.02
2022-10-09T12:07:26.981Z,14.05
2022-10-09T12:09:59.205Z,14.05
2022-10-09T12:12:25.960Z,14.10
2022-10-09T12:14:53.148Z,14.11
2022-10-09T12:17:22.814Z,14.11
2022-10-09T12:20:02.025Z,14.07
2022-10-09T12:22:39.982Z,14.13
2022-10-09T12:25:13.329Z,14.18
2022-10-09T12:27:41.834Z,14.22
2022-10-09T12:30:12.686Z,14.22
2022-10-09T12:32:43.730Z,14.24
2022-10-09T12:35:16.600Z,14.25
2022-10-09T12:37:43.254Z,14.29
2022-10-09T12:40:15.683Z,14.31
2022-10-09T12:42:44.118Z,14.35
2022-10-09T12:45:18.785Z,14.37
2022-10-09T12:47:46.178Z,14.41
2022-10-09T12:50:15.852Z,14.43
2022-10-09T12:52:55.183Z,14.40
2022-10-09T12:55:29.284Z,14.44
2022-10-09T12:58:03.384Z,14.46
2022-10-09T13:00:32.173Z,14.51
2022-10-09T13:02:59.095Z,14.51
2022-10-09T13:05:37.553Z,14.49
2022-10-09T13:08:04.670Z,14.57
2022-10-09T13:10:31.409Z,14.57
2022-10-09T13:12:58.872Z,14.59
2022-10-09T13:15:32.859Z,14.61
2022-10-09T13:17:59.974Z,14.64
2022-10-09T13:20:32.149Z,14.62
2022-10-09T13:23:03.915Z,14.62
2022-10-09T13:25:35.564Z,14.63
2022-10-09T13:28:03.352Z,14.65
2022-10-09T13:30:30.435Z,14.67
2022-10-09T13:32:57.485Z,14.64
2022-10-09T13:35:24.251Z,14.63
2022-10-09T13:37:51.275Z,14.63
2022-10-09T13:40:20.663Z,14.63
2022-10-09T13:42:52.970Z,14.60
2022-10-09T13:45:19.829Z,14.59
2022-10-09T13:47:46.938Z,14.60
2022-10-09T13:50:14.609Z,14.61
2022-10-09T13:52:41.699Z,14.60
2022-10-09T13:55:09.083Z,14.59
2022-10-09T13:57:35.743Z,14.58
2022-10-09T14:00:03.037Z,14.58
2022-10-09T14:02:39.014Z,14.58
2022-10-09T14:05:06.084Z,14.58
2022-10-09T14:07:32.940Z,14.60
2022-10-09T14:09:59.624Z,14.59
2022-10-09T14:12:26.398Z,14.58
2022-10-09T14:14:53.722Z,14.56
2022-10-09T14:17:20.393Z,14.53
2022-10-09T14:19:47.102Z,14.53
2022-10-09T14:22:14.674Z,14.53
2022-10-09T14:24:41.472Z,14.54
2022-10-09T14:27:08.311Z,14.53
2022-10-09T14:29:34.995Z,14.53
2022-10-09T14:32:01.650Z,14.53
2022-10-09T14:34:28.297Z,14.54
2022-10-09T14:36:54.990Z,14.53
2022-10-09T14:39:21.828Z,14.54
2022-10-09T14:41:48.560Z,14.58
2022-10-09T14:44:15.466Z,14.57
2022-10-09T14:46:42.142Z,14.56
2022-10-09T14:49:10.177Z,14.55
2022-10-09T14:51:38.466Z,14.56
2022-10-09T14:54:06.081Z,14.56
2022-10-09T14:56:33.563Z,14.54
2022-10-09T14:59:00.986Z,14.54
2022-10-09T15:01:29.138Z,14.54
2022-10-09T15:03:55.997Z,14.53
2022-10-09T15:06:25.477Z,14.53
2022-10-09T15:08:55.769Z,14.52
2022-10-09T15:11:23.056Z,14.52
2022-10-09T15:13:49.800Z,14.49
2022-10-09T15:16:17.821Z,14.50
2022-10-09T15:18:45.410Z,14.50
2022-10-09T15:21:17.394Z,14.51
2022-10-09T15:23:44.590Z,14.50
2022-10-09T15:26:11.404Z,14.49
2022-10-09T15:28:39.433Z,14.50
2022-10-09T15:31:07.778Z,14.51
2022-10-09T15:33:34.719Z,14.50
2022-10-09T15:36:03.951Z,14.50
2022-10-09T15:38:30.827Z,14.50
2022-10-09T15:40:57.507Z,14.51
2022-10-09T15:43:25.907Z,14.51
2022-10-09T15:45:55.922Z,14.50
2022-10-09T15:48:24.986Z,14.50
2022-10-09T15:50:53.543Z,14.50
2022-10-09T15:53:22.665Z,14.50
2022-10-09T15:55:51.527Z,14.50
2022-10-09T15:58:19.117Z,14.53
2022-10-09T16:00:48.781Z,14.53
2022-10-09T16:03:17.287Z,14.55
2022-10-09T16:05:48.342Z,14.53
2022-10-09T16:08:16.698Z,14.52
2022-10-09T16:10:48.558Z,14.53
2022-10-09T16:13:15.914Z,14.53
2022-10-09T16:15:43.524Z,14.53
2022-10-09T16:18:10.669Z,14.53
2022-10-09T16:20:38.433Z,14.52
2022-10-09T16:23:05.549Z,14.53
2022-10-09T16:25:32.823Z,14.52
2022-10-09T16:27:59.770Z,14.53
2022-10-09T16:30:27.034Z,14.52
2022-10-09T16:32:53.777Z,14.50
2022-10-09T16:35:21.605Z,14.48
2022-10-09T16:37:48.265Z,14.46
2022-10-09T16:40:14.929Z,14.44
2022-10-09T16:42:41.586Z,14.40
2022-10-09T16:45:09.063Z,14.39
2022-10-09T16:47:35.884Z,14.31
2022-10-09T16:50:02.611Z,14.28
2022-10-09T16:52:29.315Z,14.29
2022-10-09T16:55:00.174Z,14.26
2022-10-09T16:57:27.154Z,14.19
2022-10-09T16:59:54.049Z,14.14
2022-10-09T17:02:20.752Z,14.10
2022-10-09T17:04:47.612Z,14.09
2022-10-09T17:07:14.443Z,14.03
2022-10-09T17:09:41.156Z,13.99
2022-10-09T17:12:09.648Z,13.96
2022-10-09T17:14:37.234Z,13.89
2022-10-09T17:17:05.530Z,13.86
2022-10-09T17:19:32.700Z,13.85
2022-10-09T17:22:00.675Z,13.85
2022-10-09T17:24:27.806Z,13.89
2022-10-09T17:26:55.099Z,13.85
2022-10-09T17:29:22.663Z,13.85
2022-10-09T17:31:49.591Z,13.87
2022-10-09T17:34:16.450Z,13.83
2022-10-09T17:36:44.710Z,13.87
2022-10-09T17:39:14.486Z,13.79
2022-10-09T17:41:41.618Z,13.76
2022-10-09T17:44:09.714Z,13.74
2022-10-09T17:46:36.338Z,13.70
2022-10-09T17:49:03.377Z,13.71
2022-10-09T17:51:40.439Z,13.59
2022-10-09T17:54:12.094Z,13.70
2022-10-09T17:56:39.227Z,13.74
2022-10-09T17:59:06.077Z,13.73
2022-10-09T18:01:33.483Z,13.74
2022-10-09T18:04:00.500Z,13.80
2022-10-09T18:06:30.081Z,13.81
2022-10-09T18:08:58.098Z,13.79
2022-10-09T18:11:25.666Z,13.82
2022-10-09T18:13:52.904Z,13.76
2022-10-09T18:16:24.116Z,13.69
2022-10-09T18:18:50.893Z,13.69
2022-10-09T18:21:17.751Z,13.61
2022-10-09T18:23:46.085Z,13.54
2022-10-09T18:26:15.902Z,13.57
2022-10-09T18:28:46.048Z,13.58
2022-10-09T18:31:18.593Z,13.52
2022-10-09T18:33:45.644Z,13.63
2022-10-09T18:36:19.733Z,13.54
2022-10-09T18:38:51.805Z,13.54
2022-10-09T18:41:19.145Z,13.44
2022-10-09T18:43:46.405Z,13.50
2022-10-09T18:46:15.045Z,13.51
2022-10-09T18:48:41.993Z,13.51
2022-10-09T18:51:13.388Z,13.54
2022-10-09T18:53:40.952Z,13.58
2022-10-09T18:56:08.032Z,13.50
2022-10-09T18:58:35.552Z,13.53
2022-10-09T19:01:05.462Z,13.41
2022-10-09T19:03:34.309Z,13.47
2022-10-09T19:06:01.004Z,13.47
2022-10-09T19:08:27.673Z,13.41
2022-10-09T19:10:54.326Z,13.30
2022-10-09T19:13:21.105Z,13.44
2022-10-09T19:15:58.217Z,13.42
2022-10-09T19:18:26.385Z,13.46
2022-10-09T19:20:53.328Z,13.38
2022-10-09T19:23:19.998Z,13.44
2022-10-09T19:25:53.556Z,13.25
2022-10-09T19:28:22.002Z,13.35
2022-10-09T19:30:48.806Z,13.35
2022-10-09T19:33:15.990Z,13.32
2022-10-09T19:35:50.005Z,13.26
2022-10-09T19:38:17.947Z,13.40
2022-10-09T19:40:45.287Z,13.38
2022-10-09T19:43:12.825Z,13.33
2022-10-09T19:45:39.911Z,13.35
2022-10-09T19:48:07.103Z,13.30
2022-10-09T19:50:34.494Z,13.29
2022-10-09T19:53:03.376Z,13.11
2022-10-09T19:55:33.217Z,13.14
2022-10-09T19:58:00.489Z,13.17
2022-10-09T20:00:27.335Z,13.20
2022-10-09T20:02:54.061Z,13.15
2022-10-09T20:05:21.356Z,13.13
2022-10-09T20:07:48.219Z,13.14
2022-10-09T20:10:14.922Z,13.10
2022-10-09T20:12:41.674Z,13.05
2022-10-09T20:15:08.966Z,13.08
2022-10-09T20:17:35.729Z,13.07
2022-10-09T20:20:06.378Z,12.94
2022-10-09T20:22:33.163Z,12.90
2022-10-09T20:24:59.807Z,12.85
2022-10-09T20:27:26.486Z,12.87
2022-10-09T20:29:53.870Z,12.89
2022-10-09T20:32:20.494Z,12.86
2022-10-09T20:34:47.216Z,12.86
2022-10-09T20:37:13.859Z,12.90
2022-10-09T20:39:40.672Z,12.85
2022-10-09T20:42:07.526Z,12.90
2022-10-09T20:44:34.492Z,12.87
2022-10-09T20:47:01.147Z,12.85
2022-10-09T20:49:27.938Z,12.73
2022-10-09T20:51:56.746Z,12.71
2022-10-09T20:54:23.562Z,12.66
2022-10-09T20:56:50.712Z,12.62
2022-10-09T20:59:18.118Z,12.67
2022-10-09T21:01:45.585Z,12.61
2022-10-09T21:04:12.658Z,12.57
2022-10-09T21:06:39.476Z,12.55
2022-10-09T21:09:06.697Z,12.51
2022-10-09T21:11:35.011Z,12.47
2022-10-09T21:14:02.628Z,12.46
2022-10-09T21:16:29.670Z,12.46
2022-10-09T21:18:58.667Z,12.44
2022-10-09T21:21:26.390Z,12.41
2022-10-09T21:23:54.518Z,12.45
2022-10-09T21:26:22.485Z,12.38
2022-10-09T21:28:49.285Z,12.35
2022-10-09T21:31:18.565Z,12.37
2022-10-09T21:33:46.022Z,12.41
2022-10-09T21:36:36.060Z,12.23
2022-10-09T21:39:04.274Z,12.42
2022-10-09T21:41:31.048Z,12.49
2022-10-09T21:43:57.837Z,12.54
2022-10-09T21:46:24.657Z,12.62
2022-10-09T21:48:51.313Z,12.66
2022-10-09T21:51:18.091Z,12.68
2022-10-09T21:53:45.115Z,12.68
2022-10-09T21:56:12.054Z,12.70
2022-10-09T21:58:40.265Z,12.73
2022-10-09T22:01:07.242Z,12.70
2022-10-09T22:03:35.441Z,12.70
2022-10-09T22:06:07.418Z,12.67
2022-10-09T22:08:34.354Z,12.66
2022-10-09T22:11:03.990Z,12.67
2022-10-09T22:13:30.740Z,12.68
2022-10-09T22:15:57.398Z,12.64
2022-10-09T22:18:24.062Z,12.67
2022-10-09T22:20:51.287Z,12.66
2022-10-09T22:23:19.476Z,12.57
2022-10-09T22:25:58.630Z,12.45
2022-10-09T22:28:25.547Z,12.48
2022-10-09T22:31:03.931Z,12.43
2022-10-09T22:33:31.203Z,12.54
2022-10-09T22:36:04.978Z,12.37
2022-10-09T22:38:32.017Z,12.37
2022-10-09T22:41:06.513Z,12.26
2022-10-09T22:43:33.186Z,12.33
2022-10-09T22:46:00.016Z,12.30
2022-10-09T22:48:26.662Z,12.32
2022-10-09T22:50:53.299Z,12.31
2022-10-09T22:53:20.005Z,12.26
2022-10-09T22:55:46.620Z,12.33
2022-10-09T22:58:13.391Z,12.38
2022-10-09T23:00:40.023Z,12.34
2022-10-09T23:03:06.888Z,12.42
2022-10-09T23:05:33.577Z,12.40
2022-10-09T23:08:00.247Z,12.38
2022-10-09T23:10:26.998Z,12.29
2022-10-09T23:12:53.770Z,12.25
2022-10-09T23:15:20.439Z,12.21
2022-10-09T23:17:47.131Z,12.11
2022-10-09T23:20:13.851Z,12.09
2022-10-09T23:22:40.650Z,12.03
2022-10-09T23:25:07.678Z,12.01
2022-10-09T23:27:34.319Z,11.95
2022-10-09T23:30:01.057Z,11.97
2022-10-09T23:32:27.935Z,11.88
2022-10-09T23:34:54.685Z,11.87
2022-10-09T23:37:21.351Z,11.91
2022-10-09T23:39:48.056Z,11.80
2022-10-09T23:42:14.737Z,11.81
2022-10-09T23:44:41.410Z,11.76
2022-10-09T23:47:08.107Z,11.77
2022-10-09T23:49:34.887Z,11.77
2022-10-09T23:52:01.633Z,11.77
2022-10-09T23:54:28.335Z,11.74
2022-10-09T23:56:54.977Z,11.71
2022-10-09T23:59:21.642Z,11.79
